createdAt,value
2023-01-03T00:01:41.087Z,98616.63
2023-01-03T00:04:08.396Z,98619.69
2023-01-03T00:06:37.380Z,98628.66
2023-01-03T00:09:09.219Z,98633.38
2023-01-03T00:11:38.289Z,98624.59
2023-01-03T00:14:05.435Z,98644.38
2023-01-03T00:16:32.604Z,98634.78
2023-01-03T00:18:59.721Z,98627.75
2023-01-03T00:21:26.792Z,98629.31
2023-01-03T00:23:53.885Z,98624.91
2023-01-03T00:26:22.305Z,98626.69
2023-01-03T00:28:49.393Z,98628.00
2023-01-03T00:31:16.513Z,98624.13
2023-01-03T00:33:43.668Z,98624.69
2023-01-03T00:36:11.115Z,98622.97
2023-01-03T00:38:38.894Z,98613.31
2023-01-03T00:41:06.793Z,98622.41
2023-01-03T00:43:35.659Z,98623.25
2023-01-03T00:46:03.940Z,98626.88
2023-01-03T00:48:31.701Z,98619.22
2023-01-03T00:51:04.964Z,98643.16
2023-01-03T00:53:32.035Z,98652.81
2023-01-03T00:56:02.558Z,98642.94
2023-01-03T00:58:30.429Z,98650.19
2023-01-03T01:01:05.003Z,98646.69
2023-01-03T01:03:32.667Z,98659.53
2023-01-03T01:05:59.813Z,98652.25
2023-01-03T01:08:26.918Z,98652.94
2023-01-03T01:10:54.040Z,98649.34
2023-01-03T01:13:21.109Z,98645.97
2023-01-03T01:15:48.195Z,98645.97
2023-01-03T01:18:16.625Z,98642.94
2023-01-03T01:20:43.738Z,98635.50
2023-01-03T01:23:10.805Z,98636.56
2023-01-03T01:25:37.905Z,98652.81
2023-01-03T01:28:05.260Z,98648.94
2023-01-03T01:30:32.366Z,98647.56
2023-01-03T01:32:59.462Z,98648.03
2023-01-03T01:35:27.840Z,98653.91
2023-01-03T01:37:54.949Z,98647.78
2023-01-03T01:40:22.033Z,98662.19
2023-01-03T01:42:49.134Z,98658.13
2023-01-03T01:45:16.230Z,98651.06
2023-01-03T01:47:50.280Z,98665.16
2023-01-03T01:50:22.026Z,98665.97
2023-01-03T01:52:56.497Z,98676.25
2023-01-03T01:55:27.622Z,98690.63
2023-01-03T01:57:55.060Z,98687.34
2023-01-03T02:03:17.457Z,98699.13
2023-01-03T02:05:48.816Z,98687.84
2023-01-03T02:08:17.474Z,98706.75
2023-01-03T02:11:00.346Z,98669.25
2023-01-03T02:13:35.126Z,98685.44
2023-01-03T02:16:15.636Z,98704.56
2023-01-03T02:18:54.781Z,98706.56
2023-01-03T02:21:57.038Z,98723.63
2023-01-03T02:24:49.858Z,98716.16
2023-01-03T02:27:45.125Z,98714.53
2023-01-03T02:30:37.606Z,98712.06
2023-01-03T02:33:13.654Z,98713.03
2023-01-03T02:35:51.944Z,98715.56
2023-01-03T02:38:26.412Z,98713.00
2023-01-03T02:41:00.385Z,98716.72
2023-01-03T02:43:32.598Z,98714.38
2023-01-03T02:46:08.147Z,98708.38
2023-01-03T02:48:43.553Z,98706.59
2023-01-03T02:51:15.217Z,98702.31
2023-01-03T02:53:47.772Z,98710.50
2023-01-03T02:56:19.715Z,98715.88
2023-01-03T02:58:52.766Z,98697.34
2023-01-03T03:01:21.591Z,98715.69
2023-01-03T03:03:48.938Z,98713.00
2023-01-03T03:06:22.208Z,98717.78
2023-01-03T03:08:49.481Z,98719.09
2023-01-03T03:11:16.610Z,98725.97
2023-01-03T03:13:47.686Z,98706.50
2023-01-03T03:16:20.399Z,98719.44
2023-01-03T03:18:57.407Z,98714.31
2023-01-03T03:21:27.514Z,98710.81
2023-01-03T03:23:59.654Z,98707.78
2023-01-03T03:26:33.108Z,98719.94
2023-01-03T03:29:03.741Z,98718.84
2023-01-03T03:31:34.860Z,98722.94
2023-01-03T03:34:08.582Z,98719.75
2023-01-03T03:36:43.567Z,98707.72
2023-01-03T03:39:12.130Z,98711.47
2023-01-03T03:41:42.966Z,98717.63
2023-01-03T03:44:20.105Z,98716.09
2023-01-03T03:46:55.159Z,98728.88
2023-01-03T03:49:27.667Z,98720.38
2023-01-03T03:51:57.153Z,98731.47
2023-01-03T03:54:25.781Z,98732.75
2023-01-03T03:56:59.922Z,98735.69
2023-01-03T03:59:28.715Z,98736.88
2023-01-03T04:01:58.822Z,98734.63
2023-01-03T04:04:33.755Z,98733.84
2023-01-03T04:07:01.072Z,98728.47
2023-01-03T04:09:28.485Z,98722.28
2023-01-03T04:11:55.748Z,98728.69
2023-01-03T04:14:22.823Z,98734.44
2023-01-03T04:16:49.953Z,98730.44
2023-01-03T04:19:17.073Z,98739.44
2023-01-03T04:21:45.469Z,98738.47
2023-01-03T04:24:12.544Z,98735.56
2023-01-03T04:26:39.632Z,98739.97
2023-01-03T04:29:06.723Z,98742.19
2023-01-03T04:31:33.842Z,98745.69
2023-01-03T04:34:00.988Z,98744.03
2023-01-03T04:36:28.060Z,98736.59
2023-01-03T04:38:56.888Z,98741.38
2023-01-03T04:41:23.995Z,98739.75
2023-01-03T04:43:51.062Z,98746.31
2023-01-03T04:46:18.472Z,98752.41
2023-01-03T04:48:45.708Z,98754.28
2023-01-03T04:51:13.332Z,98747.75
2023-01-03T04:53:40.392Z,98746.91
2023-01-03T04:56:09.023Z,98757.88
2023-01-03T04:58:36.101Z,98759.31
2023-01-03T05:01:05.442Z,98753.00
2023-01-03T05:03:32.656Z,98754.31
2023-01-03T05:06:00.042Z,98755.78
2023-01-03T05:08:27.354Z,98758.25
2023-01-03T05:10:54.562Z,98773.75
2023-01-03T05:13:23.112Z,98769.81
2023-01-03T05:15:50.182Z,98730.81
2023-01-03T05:18:17.340Z,98771.63
2023-01-03T05:20:44.936Z,98776.09
2023-01-03T05:23:12.960Z,98777.50
2023-01-03T05:25:40.059Z,98778.03
2023-01-03T05:28:10.826Z,98782.22
2023-01-03T05:30:42.202Z,98779.16
2023-01-03T05:33:09.273Z,98785.34
2023-01-03T05:35:36.376Z,98792.03
2023-01-03T05:38:03.518Z,98791.22
2023-01-03T05:40:31.480Z,98800.66
2023-01-03T05:43:00.902Z,98785.84
2023-01-03T05:45:27.996Z,98801.72
2023-01-03T05:47:58.034Z,98804.41
2023-01-03T05:50:25.514Z,98797.97
2023-01-03T05:52:52.628Z,98797.28
2023-01-03T05:55:19.696Z,98801.16
2023-01-03T05:57:46.770Z,98803.53
2023-01-03T06:00:15.251Z,98791.97
2023-01-03T06:02:42.347Z,98805.06
2023-01-03T06:05:11.230Z,98798.84
2023-01-03T06:07:38.322Z,98800.50
2023-01-03T06:10:06.461Z,98793.47
2023-01-03T06:12:33.529Z,98810.41
2023-01-03T06:15:00.868Z,98803.59
2023-01-03T06:17:28.002Z,98809.56
2023-01-03T06:19:55.119Z,98818.19
2023-01-03T06:22:23.565Z,98811.59
2023-01-03T06:24:50.629Z,98812.97
2023-01-03T06:27:17.729Z,98810.97
2023-01-03T06:29:44.816Z,98816.94
2023-01-03T06:32:11.898Z,98813.88
2023-01-03T06:34:39.000Z,98798.59
2023-01-03T06:37:06.197Z,98821.50
2023-01-03T06:39:34.631Z,98822.06
2023-01-03T06:42:01.699Z,98822.31
2023-01-03T06:44:28.784Z,98825.41
2023-01-03T06:46:55.861Z,98830.22
2023-01-03T06:49:22.909Z,98830.72
2023-01-03T06:51:50.984Z,98833.97
2023-01-03T06:54:22.163Z,98843.41
2023-01-03T06:56:51.515Z,98846.72
2023-01-03T06:59:19.377Z,98837.34
2023-01-03T07:01:47.964Z,98837.25
2023-01-03T07:04:15.858Z,98844.13
2023-01-03T07:06:43.563Z,98842.06
2023-01-03T07:09:11.007Z,98848.75
2023-01-03T07:11:39.714Z,98850.97
2023-01-03T07:14:09.735Z,98853.44
2023-01-03T07:16:39.061Z,98857.41
2023-01-03T07:19:08.355Z,98853.19
2023-01-03T07:21:35.757Z,98865.00
2023-01-03T07:24:04.397Z,98865.22
2023-01-03T07:26:32.720Z,98866.16
2023-01-03T07:29:01.696Z,98866.72
2023-01-03T07:31:30.352Z,98862.53
2023-01-03T07:33:57.509Z,98864.31
2023-01-03T07:36:24.836Z,98871.00
2023-01-03T07:38:52.132Z,98872.38
2023-01-03T07:41:19.265Z,98876.38
2023-01-03T07:43:48.784Z,98864.22
2023-01-03T07:46:18.527Z,98890.28
2023-01-03T07:48:49.054Z,98893.22
2023-01-03T07:51:17.679Z,98894.72
2023-01-03T07:53:45.009Z,98903.50
2023-01-03T07:56:14.271Z,98902.13
2023-01-03T07:58:43.205Z,98906.25
2023-01-03T08:01:12.656Z,98897.03
2023-01-03T08:03:40.557Z,98899.03
2023-01-03T08:06:11.824Z,98912.13
2023-01-03T08:08:39.414Z,98917.38
2023-01-03T08:11:07.244Z,98918.69
2023-01-03T08:13:34.349Z,98903.38
2023-01-03T08:16:01.606Z,98914.47
2023-01-03T08:18:28.801Z,98915.06
2023-01-03T08:20:56.015Z,98905.47
2023-01-03T08:23:25.099Z,98912.59
2023-01-03T08:25:59.028Z,98925.00
2023-01-03T08:28:26.103Z,98921.47
2023-01-03T08:30:53.248Z,98930.81
2023-01-03T08:33:20.518Z,98928.13
2023-01-03T08:35:53.389Z,98927.44
2023-01-03T08:38:25.062Z,98930.84
2023-01-03T08:40:54.448Z,98932.72
2023-01-03T08:43:21.695Z,98937.47
2023-01-03T08:45:49.081Z,98935.81
2023-01-03T08:48:20.183Z,98937.69
2023-01-03T08:50:47.702Z,98941.19
2023-01-03T08:53:14.943Z,98937.59
2023-01-03T08:55:42.059Z,98949.97
2023-01-03T08:58:10.472Z,98952.53
2023-01-03T09:00:37.606Z,98960.00
2023-01-03T09:03:05.077Z,98964.94
2023-01-03T09:05:32.718Z,98963.63
2023-01-03T09:07:59.963Z,98955.47
2023-01-03T09:10:27.045Z,98958.50
2023-01-03T09:12:54.145Z,98956.06
2023-01-03T09:15:23.544Z,98964.44
2023-01-03T09:17:50.662Z,98970.66
2023-01-03T09:20:18.226Z,98958.03
2023-01-03T09:22:46.043Z,98957.91
2023-01-03T09:25:13.657Z,98961.53
2023-01-03T09:27:44.767Z,98967.63
2023-01-03T09:30:12.344Z,98976.84
2023-01-03T09:32:41.217Z,98977.91
2023-01-03T09:35:09.263Z,98979.41
2023-01-03T09:37:36.573Z,98979.31
2023-01-03T09:40:04.669Z,98972.63
2023-01-03T09:42:32.414Z,98963.41
2023-01-03T09:44:59.702Z,98967.97
2023-01-03T09:47:26.891Z,98972.75
2023-01-03T09:50:27.702Z,98969.81
2023-01-03T09:52:44.994Z,98969.22
2023-01-03T09:55:26.592Z,98972.50
2023-01-03T09:57:53.715Z,98970.75
2023-01-03T10:00:30.169Z,98967.97
2023-01-03T10:03:12.969Z,98966.53
2023-01-03T10:05:55.438Z,98960.72
2023-01-03T10:08:35.527Z,98956.03
2023-01-03T10:11:07.376Z,98953.81
2023-01-03T10:14:04.832Z,98941.56
2023-01-03T10:16:41.605Z,98948.69
2023-01-03T10:19:22.912Z,98955.22
2023-01-03T10:21:58.425Z,98952.88
2023-01-03T10:24:30.183Z,98939.34
2023-01-03T10:27:04.084Z,98958.06
2023-01-03T10:29:31.197Z,98945.91
2023-01-03T10:32:13.572Z,98958.41
2023-01-03T10:34:40.855Z,98958.03
2023-01-03T10:37:16.634Z,98951.28
2023-01-03T10:39:43.847Z,98950.22
2023-01-03T10:42:17.122Z,98944.03
2023-01-03T10:44:57.472Z,98951.72
2023-01-03T10:47:26.571Z,98949.53
2023-01-03T10:49:59.157Z,98944.38
2023-01-03T10:52:31.167Z,98934.81
2023-01-03T10:55:01.292Z,98937.63
2023-01-03T10:57:37.780Z,98942.03
2023-01-03T11:00:30.503Z,98935.00
2023-01-03T11:03:09.924Z,98940.75
2023-01-03T11:05:38.422Z,98944.13
2023-01-03T11:08:15.612Z,98944.09
2023-01-03T11:10:51.518Z,98947.59
2023-01-03T11:13:24.447Z,98944.69
2023-01-03T11:15:54.498Z,98939.06
2023-01-03T11:18:21.579Z,98924.69
2023-01-03T11:20:53.730Z,98936.94
2023-01-03T11:23:36.578Z,98937.28
2023-01-03T11:26:16.049Z,98930.84
2023-01-03T11:28:58.648Z,98925.47
2023-01-03T11:31:36.350Z,98929.22
2023-01-03T11:34:18.231Z,98923.63
2023-01-03T11:36:50.071Z,98914.13
2023-01-03T11:39:35.218Z,98923.75
2023-01-03T11:42:23.011Z,98924.69
2023-01-03T11:45:05.503Z,98917.34
2023-01-03T11:47:44.721Z,98920.84
2023-01-03T11:50:22.144Z,98929.16
2023-01-03T11:52:55.873Z,98923.88
2023-01-03T11:55:51.875Z,98914.63
2023-01-03T11:58:47.183Z,98909.09
2023-01-03T12:01:26.768Z,98922.31
2023-01-03T12:04:18.170Z,98914.50
2023-01-03T12:06:52.010Z,98912.09
2023-01-03T12:09:25.353Z,98917.28
2023-01-03T12:12:14.427Z,98914.31
2023-01-03T12:14:47.289Z,98911.09
2023-01-03T12:17:20.015Z,98904.13
2023-01-03T12:19:52.921Z,98912.88
2023-01-03T12:22:25.975Z,98926.47
2023-01-03T12:25:04.360Z,98922.28
2023-01-03T12:27:38.390Z,98918.78
2023-01-03T12:30:13.709Z,98911.91
2023-01-03T12:32:46.833Z,98913.31
2023-01-03T12:35:22.825Z,98916.44
2023-01-03T12:37:50.880Z,98915.19
2023-01-03T12:40:27.184Z,98916.72
2023-01-03T12:43:04.583Z,98912.25
2023-01-03T12:45:43.229Z,98910.84
2023-01-03T12:48:28.408Z,98913.88
2023-01-03T12:50:55.602Z,98909.09
2023-01-03T12:53:28.414Z,98917.38
2023-01-03T12:56:10.497Z,98900.00
2023-01-03T12:58:49.461Z,98907.56
2023-01-03T13:01:24.542Z,98905.13
2023-01-03T13:03:56.172Z,98902.78
2023-01-03T13:06:28.199Z,98904.63
2023-01-03T13:08:58.190Z,98899.97
2023-01-03T13:11:30.817Z,98886.88
2023-01-03T13:14:05.557Z,98892.75
2023-01-03T13:16:45.094Z,98898.34
2023-01-03T13:19:41.155Z,98893.56
2023-01-03T13:22:21.745Z,98884.31
2023-01-03T13:24:50.441Z,98881.28
2023-01-03T13:27:37.824Z,98886.00
2023-01-03T13:30:21.322Z,98885.38
2023-01-03T13:32:51.512Z,98876.38
2023-01-03T13:35:29.608Z,98886.88
2023-01-03T13:37:59.579Z,98877.19
2023-01-03T13:40:51.926Z,98882.13
2023-01-03T13:43:22.053Z,98883.00
2023-01-03T13:45:59.903Z,98882.34
2023-01-03T13:48:33.320Z,98890.66
2023-01-03T13:51:29.086Z,98887.59
2023-01-03T13:54:00.412Z,98896.03
2023-01-03T13:56:30.381Z,98894.13
2023-01-03T13:59:16.737Z,98880.13
2023-01-03T14:02:21.866Z,98901.97
2023-01-03T14:05:11.798Z,98902.13
2023-01-03T14:08:08.703Z,98901.63
2023-01-03T14:11:05.380Z,98908.38
2023-01-03T14:13:41.014Z,98919.97
2023-01-03T14:16:22.045Z,98916.72
2023-01-03T14:18:59.072Z,98912.59
2023-01-03T14:21:37.357Z,98921.38
2023-01-03T14:24:06.358Z,98926.84
2023-01-03T14:26:33.655Z,98914.22
2023-01-03T14:29:00.822Z,98919.38
2023-01-03T14:31:28.308Z,98913.53
2023-01-03T14:34:00.120Z,98906.41
2023-01-03T14:36:28.076Z,98910.59
2023-01-03T14:38:57.043Z,98920.53
2023-01-03T14:41:28.240Z,98907.22
2023-01-03T14:44:02.365Z,98929.63
2023-01-03T14:46:31.726Z,98929.56
2023-01-03T14:49:03.748Z,98931.88
2023-01-03T14:51:33.783Z,98927.19
2023-01-03T14:54:02.003Z,98927.41
2023-01-03T14:56:29.858Z,98897.53
2023-01-03T14:58:57.845Z,98920.56
2023-01-03T15:01:25.230Z,98924.06
2023-01-03T15:03:53.097Z,98931.63
2023-01-03T15:06:24.440Z,98924.97
2023-01-03T15:08:53.041Z,98931.53
2023-01-03T15:11:29.645Z,98933.50
2023-01-03T15:14:01.715Z,98936.66
2023-01-03T15:16:32.746Z,98939.03
2023-01-03T15:19:11.583Z,98933.28
2023-01-03T15:21:41.218Z,98936.78
2023-01-03T15:24:14.862Z,98929.56
2023-01-03T15:26:44.122Z,98944.41
2023-01-03T15:29:13.598Z,98942.84
2023-01-03T15:31:49.265Z,98944.00
2023-01-03T15:34:18.711Z,98941.63
2023-01-03T15:36:51.790Z,98937.53
2023-01-03T15:39:20.674Z,98945.72
2023-01-03T15:41:50.475Z,98949.34
2023-01-03T15:44:28.666Z,98951.91
2023-01-03T15:46:58.595Z,98944.06
2023-01-03T15:49:27.453Z,98948.06
2023-01-03T15:51:56.061Z,98941.19
2023-01-03T15:54:23.176Z,98954.97
2023-01-03T15:56:58.550Z,98949.94
2023-01-03T15:59:28.123Z,98952.16
2023-01-03T16:01:55.696Z,98962.66
2023-01-03T16:04:23.787Z,98964.91
2023-01-03T16:06:51.080Z,98965.72
2023-01-03T16:09:20.208Z,98959.53
2023-01-03T16:11:51.213Z,98961.63
2023-01-03T16:14:21.658Z,98958.97
2023-01-03T16:16:51.487Z,98913.59
2023-01-03T16:19:21.535Z,98964.19
2023-01-03T16:22:09.295Z,98962.66
2023-01-03T16:24:38.611Z,98965.16
2023-01-03T16:27:12.756Z,98963.41
2023-01-03T16:29:39.863Z,98971.22
2023-01-03T16:32:15.460Z,98971.13
2023-01-03T16:34:42.597Z,98976.19
2023-01-03T16:37:10.070Z,98958.06
2023-01-03T16:39:42.428Z,98976.63
2023-01-03T16:42:14.660Z,98979.25
2023-01-03T16:44:43.272Z,98972.75
2023-01-03T16:47:15.865Z,98975.78
2023-01-03T16:49:45.228Z,98975.56
2023-01-03T16:52:14.842Z,98980.94
2023-01-03T16:54:44.167Z,98981.69
2023-01-03T16:57:16.251Z,98980.25
2023-01-03T16:59:43.705Z,98976.47
2023-01-03T17:02:10.970Z,98985.22
2023-01-03T17:04:38.328Z,98986.28
2023-01-03T17:07:05.680Z,98987.31
2023-01-03T17:09:35.324Z,98988.97
2023-01-03T17:12:04.949Z,98989.22
2023-01-03T17:14:36.202Z,98990.59
2023-01-03T17:17:03.360Z,98990.72
2023-01-03T17:22:20.950Z,98984.06
2023-01-03T17:24:49.714Z,98993.88
2023-01-03T17:27:24.995Z,99001.63
2023-01-03T17:30:00.006Z,98996.34
2023-01-03T17:32:27.098Z,98996.94
2023-01-03T17:34:54.246Z,99002.44
2023-01-03T17:37:22.846Z,98991.59
2023-01-03T17:39:54.142Z,98997.66
2023-01-03T17:42:25.526Z,99014.97
2023-01-03T17:44:52.943Z,99012.97
2023-01-03T17:47:22.545Z,99002.69
2023-01-03T17:49:49.610Z,99003.88
2023-01-03T17:52:23.636Z,99020.09
2023-01-03T17:54:51.463Z,99026.41
2023-01-03T17:57:18.589Z,99028.41
2023-01-03T17:59:47.107Z,99030.16
2023-01-03T18:02:18.080Z,99026.19
2023-01-03T18:05:14.800Z,99018.56
2023-01-03T18:07:32.746Z,99027.00
2023-01-03T18:10:00.187Z,99028.53
2023-01-03T18:12:27.345Z,99020.22
2023-01-03T18:14:55.765Z,99017.19
2023-01-03T18:17:27.401Z,99008.97
2023-01-03T18:19:54.987Z,99014.50
2023-01-03T18:22:22.917Z,99022.56
2023-01-03T18:24:51.010Z,99024.44
2023-01-03T18:27:20.420Z,99020.56
2023-01-03T18:29:47.570Z,99025.22
2023-01-03T18:32:26.160Z,99027.31
2023-01-03T18:34:53.728Z,99027.09
2023-01-03T18:37:22.394Z,99030.63
2023-01-03T18:39:49.789Z,99030.94
2023-01-03T18:42:16.910Z,99028.34
2023-01-03T18:44:43.985Z,99030.13
2023-01-03T18:47:12.947Z,99034.44
2023-01-03T18:49:41.446Z,99037.72
2023-01-03T18:52:21.675Z,99030.44
2023-01-03T18:54:49.591Z,99033.97
2023-01-03T18:57:16.855Z,99040.75
2023-01-03T18:59:43.995Z,99041.19
2023-01-03T19:02:14.014Z,99038.28
2023-01-03T19:04:47.634Z,99036.91
2023-01-03T19:07:19.695Z,99042.28
2023-01-03T19:09:47.113Z,99042.84
2023-01-03T19:12:17.085Z,99041.19
2023-01-03T19:14:46.800Z,99044.16
2023-01-03T19:17:15.676Z,99041.09
2023-01-03T19:19:44.704Z,99045.34
2023-01-03T19:22:25.565Z,99048.75
2023-01-03T19:24:54.480Z,99043.59
2023-01-03T19:27:24.059Z,99041.50
2023-01-03T19:29:52.572Z,99046.41
2023-01-03T19:32:22.600Z,99050.94
2023-01-03T19:34:51.943Z,99045.63
2023-01-03T19:37:19.362Z,99037.81
2023-01-03T19:39:46.784Z,99040.75
2023-01-03T19:42:17.170Z,99038.81
2023-01-03T19:44:46.621Z,99041.53
2023-01-03T19:47:16.018Z,99047.91
2023-01-03T19:49:44.933Z,99047.84
2023-01-03T19:52:15.966Z,99040.25
2023-01-03T19:54:44.094Z,99055.25
2023-01-03T19:57:20.807Z,99055.63
2023-01-03T19:59:51.835Z,99047.34
2023-01-03T20:02:35.363Z,99050.84
2023-01-03T20:05:06.505Z,99046.50
2023-01-03T20:07:36.062Z,99042.41
2023-01-03T20:10:03.501Z,99051.66
2023-01-03T20:12:31.290Z,99048.72
2023-01-03T20:15:04.617Z,99048.00
2023-01-03T20:17:34.262Z,99039.56
2023-01-03T20:20:01.384Z,99040.53
2023-01-03T20:23:03.193Z,99041.94
2023-01-03T20:25:28.486Z,99039.72
2023-01-03T20:27:56.678Z,99035.28
2023-01-03T20:30:26.212Z,99043.69
2023-01-03T20:32:53.899Z,99041.59
2023-01-03T20:38:11.611Z,99039.88
2023-01-03T20:40:40.423Z,99051.41
2023-01-03T20:43:12.780Z,99039.72
2023-01-03T20:45:39.938Z,99036.47
2023-01-03T20:48:12.899Z,99045.72
2023-01-03T20:50:40.037Z,99045.72
2023-01-03T20:53:10.048Z,99036.00
2023-01-03T20:55:37.152Z,99015.31
2023-01-03T20:58:05.565Z,99038.44
2023-01-03T21:00:34.940Z,99045.00
2023-01-03T21:03:02.321Z,99036.69
2023-01-03T21:05:29.676Z,99036.59
2023-01-03T21:07:56.780Z,99039.28
2023-01-03T21:10:27.902Z,99033.41
2023-01-03T21:12:55.013Z,99033.06
2023-01-03T21:15:23.550Z,99038.78
2023-01-03T21:17:51.356Z,99034.22
2023-01-03T21:20:20.838Z,99038.31
2023-01-03T21:22:48.033Z,99044.75
2023-01-03T21:25:20.439Z,99038.31
2023-01-03T21:27:47.957Z,99037.03
2023-01-03T21:30:17.018Z,99037.84
2023-01-03T21:32:46.027Z,99041.97
2023-01-03T21:35:14.937Z,99044.31
2023-01-03T21:37:42.076Z,99038.91
2023-01-03T21:40:15.554Z,99035.06
2023-01-03T21:42:42.696Z,99035.66
2023-01-03T21:45:13.179Z,99006.78
2023-01-03T21:47:40.328Z,99027.91
2023-01-03T21:50:09.823Z,99021.13
2023-01-03T21:52:36.885Z,99022.41
2023-01-03T21:55:04.535Z,99033.16
2023-01-03T21:57:31.603Z,99033.41
2023-01-03T21:59:58.670Z,99033.88
2023-01-03T22:02:25.990Z,99036.56
2023-01-03T22:04:53.126Z,99040.41
2023-01-03T22:07:21.534Z,99021.59
2023-01-03T22:09:48.663Z,99037.13
2023-01-03T22:12:16.569Z,99041.34
2023-01-03T22:14:43.903Z,99033.59
2023-01-03T22:17:11.019Z,99029.75
2023-01-03T22:19:38.112Z,99041.13
2023-01-03T22:22:05.311Z,99033.06
2023-01-03T22:24:34.156Z,99036.69
2023-01-03T22:27:01.255Z,99029.78
2023-01-03T22:29:28.395Z,99032.47
2023-01-03T22:31:55.604Z,99029.56
2023-01-03T22:34:22.717Z,99034.81
2023-01-03T22:36:49.780Z,99031.69
2023-01-03T22:39:16.870Z,99032.28
2023-01-03T22:41:45.413Z,99030.88
2023-01-03T22:44:12.513Z,99034.03
2023-01-03T22:46:39.650Z,99036.72
2023-01-03T22:49:06.732Z,99018.47
2023-01-03T22:51:33.810Z,99018.84
2023-01-03T22:54:00.974Z,99014.13
2023-01-03T22:56:28.085Z,99016.16
2023-01-03T22:58:56.490Z,99022.41
2023-01-03T23:01:23.730Z,99021.41
2023-01-03T23:03:50.998Z,99018.81
2023-01-03T23:06:19.887Z,99019.72
2023-01-03T23:08:47.950Z,99025.03
2023-01-03T23:11:17.652Z,99030.03
2023-01-03T23:13:44.727Z,99027.25
2023-01-03T23:16:13.283Z,99018.13
2023-01-03T23:18:40.381Z,99028.16
2023-01-03T23:21:07.448Z,99012.16
2023-01-03T23:23:34.581Z,99029.81
2023-01-03T23:26:02.079Z,99019.28
2023-01-03T23:28:29.572Z,99020.34
2023-01-03T23:30:56.798Z,99019.19
2023-01-03T23:33:25.263Z,99010.28
2023-01-03T23:35:52.329Z,99014.28
2023-01-03T23:38:19.414Z,99014.34
2023-01-03T23:40:46.499Z,99013.75
2023-01-03T23:43:13.582Z,99017.28
2023-01-03T23:45:40.688Z,99013.44
2023-01-03T23:48:07.802Z,99008.72
2023-01-03T23:50:36.216Z,99001.97
2023-01-03T23:53:03.352Z,99001.75
2023-01-03T23:55:30.564Z,99006.28
2023-01-03T23:57:57.659Z,98997.53
